Time;durP1;ratioP1;P1;durP2;ratioP2;P2;SDS_P1;SDS_P2;PMS_P1;PMS_P2;Temp;Humidity;BMP_temperature;BMP_pressure;BME280_temperature;BME280_humidity;BME280_pressure;Samples;Min_cycle;Max_cycle;Signal;HPM_P1;HPM_P2
2022/08/06 00:00:19;;;;;;;1.33;0.93;;;19.00;59.70;;;21.66;45.60;102279.66;5114923;28;20274;-64
2022/08/06 00:02:53;;;;;;;1.20;0.87;;;19.00;59.80;;;21.62;45.53;102286.47;5115348;28;20211;-64
2022/08/06 00:05:21;;;;;;;2.43;1.20;;;19.00;60.00;;;21.58;45.95;102289.56;5115436;28;20548;-64
2022/08/06 00:07:58;;;;;;;2.37;1.20;;;18.90;60.00;;;21.54;46.01;102296.38;5115059;28;20180;-64
2022/08/06 00:10:28;;;;;;;2.10;1.20;;;18.90;60.30;;;21.50;45.77;102294.34;5115533;28;20227;-64
2022/08/06 00:12:58;;;;;;;1.40;0.97;;;18.80;60.00;;;21.44;46.31;102295.19;5115885;28;20215;-64
2022/08/06 00:15:28;;;;;;;1.53;1.00;;;18.80;60.10;;;21.38;46.74;102296.81;5115731;28;20269;-64
2022/08/06 00:18:15;;;;;;;1.10;1.00;;;18.70;60.20;;;21.31;46.34;102290.66;5115260;28;20656;-64
2022/08/06 00:20:44;;;;;;;2.53;1.30;;;18.70;60.10;;;21.26;45.92;102301.16;5115000;28;20270;-63
2022/08/06 00:23:18;;;;;;;2.67;1.37;;;18.60;60.10;;;21.21;46.06;102311.66;5115312;28;20208;-65
2022/08/06 00:25:51;;;;;;;2.37;1.20;;;18.60;60.30;;;21.16;46.14;102313.28;5114248;28;20556;-64
2022/08/06 00:28:21;;;;;;;2.00;1.20;;;18.50;60.50;;;21.11;46.08;102308.56;5115255;28;20191;-64
2022/08/06 00:31:00;;;;;;;1.87;1.17;;;18.50;60.60;;;21.04;46.61;102304.22;5114652;28;20204;-65
2022/08/06 00:33:36;;;;;;;3.00;1.60;;;18.40;60.90;;;20.99;46.80;102306.69;5102023;28;20191;-62
2022/08/06 00:36:24;;;;;;;1.70;0.93;;;18.30;61.00;;;20.94;46.96;102310.78;5094582;28;20195;-64
2022/08/06 00:38:59;;;;;;;1.80;1.20;;;18.30;61.30;;;20.91;47.21;102321.06;5094990;28;20630;-64
2022/08/06 00:41:29;;;;;;;1.70;1.20;;;18.30;61.50;;;20.90;46.81;102324.78;5094398;28;20216;-64
2022/08/06 00:44:13;;;;;;;1.60;1.30;;;18.20;61.50;;;20.88;47.25;102326.81;5094671;28;20184;-64
2022/08/06 00:46:41;;;;;;;2.57;1.10;;;18.20;61.70;;;20.86;46.87;102328.88;5094974;28;20192;-63
2022/08/06 00:49:09;;;;;;;2.40;1.60;;;18.10;61.70;;;20.87;47.56;102336.72;5097062;28;20301;-64
2022/08/06 00:51:38;;;;;;;1.13;1.03;;;18.20;62.40;;;20.92;47.26;102333.41;5094297;28;20291;-63
2022/08/06 00:54:21;;;;;;;1.30;1.20;;;18.20;62.50;;;20.99;47.63;102336.94;5111251;28;20204;-63
2022/08/06 00:57:04;;;;;;;1.50;1.40;;;18.20;62.40;;;21.06;47.69;102334.31;5114550;28;20616;-64
2022/08/06 00:59:38;;;;;;;1.80;1.03;;;18.30;62.50;;;21.14;47.68;102337.59;5114668;28;20237;-64
2022/08/06 01:02:09;;;;;;;4.10;1.10;;;18.30;62.50;;;21.19;47.18;102343.19;5114068;28;20295;-63
2022/08/06 01:04:37;;;;;;;1.37;1.27;;;18.40;62.10;;;21.19;46.95;102340.50;5114210;28;20636;-64
2022/08/06 01:07:04;;;;;;;1.83;1.10;;;18.40;61.80;;;21.19;47.17;102345.03;5113797;28;20218;-64
2022/08/06 01:09:38;;;;;;;4.77;1.30;;;18.40;61.60;;;21.16;46.51;102350.78;5114126;28;20191;-64
2022/08/06 01:12:25;;;;;;;2.10;1.47;;;18.40;61.60;;;21.13;47.29;102344.00;5113983;28;20684;-64
2022/08/06 01:15:03;;;;;;;1.53;1.23;;;18.40;61.60;;;21.12;47.34;102345.03;5114067;28;20211;-63
2022/08/06 01:17:53;;;;;;;4.10;1.40;;;18.40;61.60;;;21.09;46.88;102345.44;5114092;28;20191;-64
2022/08/06 01:20:44;;;;;;;1.77;1.20;;;18.40;61.60;;;21.05;46.88;102354.06;5113908;28;20548;-64
2022/08/06 01:24:12;;;;;;;2.00;1.10;;;18.40;61.40;;;20.95;47.53;102359.78;5093541;28;20188;-62
2022/08/06 01:26:49;;;;;;;3.03;1.33;;;18.40;61.80;;;20.98;47.12;102364.75;5093730;28;20199;-64
2022/08/06 01:29:29;;;;;;;3.67;1.40;;;18.40;61.40;;;20.94;46.76;102363.53;5094083;28;20195;-64
2022/08/06 01:32:08;;;;;;;1.43;1.33;;;18.30;61.30;;;20.90;46.87;102357.72;5093165;28;20216;-64
2022/08/06 01:34:41;;;;;;;2.37;1.23;;;18.30;61.50;;;20.91;47.11;102358.56;5093560;28;20242;-63
2022/08/06 01:37:22;;;;;;;4.00;1.30;;;18.30;61.90;;;20.92;47.29;102360.19;5093701;28;20214;-62
2022/08/06 01:40:01;;;;;;;2.03;1.30;;;18.30;61.90;;;20.90;47.13;102356.91;5093562;28;20657;-64
2022/08/06 01:42:33;;;;;;;2.07;1.70;;;18.20;61.80;;;20.94;47.24;102368.88;5093440;28;20215;-64
2022/08/06 01:45:11;;;;;;;3.87;1.77;;;18.30;62.00;;;20.91;47.46;102364.75;5093936;28;20188;-64
2022/08/06 01:47:45;;;;;;;3.27;1.33;;;18.20;61.90;;;20.91;47.67;102363.91;5112752;28;20199;-63
2022/08/06 01:50:26;;;;;;;1.30;1.20;;;18.20;62.00;;;20.89;47.14;102360.63;5114456;28;20679;-63
2022/08/06 01:52:57;;;;;;;2.33;1.10;;;18.20;61.90;;;20.88;47.71;102369.66;5113817;28;20241;-65
2022/08/06 01:55:33;;;;;;;3.07;1.50;;;18.20;62.00;;;20.84;47.17;102363.91;5113839;28;20273;-64
2022/08/06 01:58:27;;;;;;;1.83;1.13;;;18.20;62.00;;;20.78;47.32;102369.22;5114804;28;20187;-64
2022/08/06 02:01:01;;;;;;;3.73;1.70;;;18.20;62.10;;;20.76;47.65;102368.59;5113395;28;20188;-64
2022/08/06 02:03:35;;;;;;;2.57;1.33;;;18.10;62.20;;;20.72;47.32;102365.50;5114148;28;20652;-64
2022/08/06 02:06:22;;;;;;;1.10;1.00;;;18.10;62.40;;;20.69;47.97;102367.75;5113834;28;20187;-64
2022/08/06 02:09:00;;;;;;;2.17;1.30;;;18.00;62.40;;;20.67;47.86;102367.13;5113715;28;20547;-64
2022/08/06 02:11:55;;;;;;;1.50;1.37;;;18.00;62.70;;;20.64;48.02;102373.72;5098389;28;20277;-64
2022/08/06 02:14:39;;;;;;;1.40;1.20;;;18.00;62.50;;;20.62;47.68;102369.59;5114073;28;20608;-64
2022/08/06 02:17:13;;;;;;;1.80;1.60;;;17.90;62.40;;;20.56;47.56;102371.19;5114448;28;20188;-64
2022/08/06 02:19:48;;;;;;;3.07;2.00;;;17.90;62.40;;;20.52;47.85;102374.47;5112530;28;20200;-64
2022/08/06 02:22:39;;;;;;;4.07;1.60;;;17.80;62.20;;;20.44;47.38;102372.00;5113698;28;20542;-64
2022/08/06 02:25:13;;;;;;;1.73;1.50;;;17.80;62.30;;;20.38;47.58;102378.13;5113543;28;20184;-65
2022/08/06 02:27:52;;;;;;;3.13;1.70;;;17.70;62.30;;;20.31;47.89;102385.28;5093640;28;20271;-63
2022/08/06 02:30:32;;;;;;;3.03;1.67;;;17.70;62.60;;;20.27;47.90;102384.88;5092967;28;20192;-63
2022/08/06 02:33:07;;;;;;;3.80;1.63;;;17.60;62.90;;;20.23;48.03;102392.44;5092987;28;20219;-62
2022/08/06 02:35:47;;;;;;;3.00;1.53;;;17.60;63.10;;;20.16;48.41;102394.22;5093295;28;20211;-63
2022/08/06 02:38:25;;;;;;;2.13;1.30;;;17.50;63.30;;;20.12;48.22;102392.16;5093862;28;20193;-63
2022/08/06 02:41:01;;;;;;;4.90;1.60;;;17.50;63.70;;;20.09;48.78;102385.34;5098163;28;20287;-63
2022/08/06 02:43:36;;;;;;;1.77;1.53;;;17.40;63.80;;;20.06;48.92;102385.72;5113980;28;20261;-64
2022/08/06 02:46:13;;;;;;;1.47;1.43;;;17.40;64.10;;;20.02;48.83;102389.81;5116081;28;20214;-62
2022/08/06 02:48:49;;;;;;;2.70;1.60;;;17.40;64.00;;;19.98;48.57;102390.41;5118091;27;20651;-64
2022/08/06 02:51:25;;;;;;;3.83;1.70;;;17.30;64.10;;;19.99;49.11;102394.75;5137641;27;20187;-63
2022/08/06 02:54:20;;;;;;;2.07;1.87;;;17.30;64.70;;;20.04;49.40;102393.13;5121903;27;20196;-63
2022/08/06 02:56:58;;;;;;;1.90;1.70;;;17.30;64.90;;;20.10;49.57;102389.69;5116860;28;20625;-64
2022/08/06 02:59:35;;;;;;;1.63;1.53;;;17.40;65.10;;;20.20;49.53;102392.00;5116377;28;20229;-63
2022/08/06 03:02:10;;;;;;;1.50;1.40;;;17.50;65.00;;;20.29;49.39;102400.72;5116529;28;20208;-64
2022/08/06 03:04:48;;;;;;;1.83;1.43;;;17.50;64.80;;;20.33;48.62;102400.13;5117617;28;20620;-64
2022/08/06 03:07:28;;;;;;;2.80;1.67;;;17.60;64.40;;;20.36;48.72;102397.06;5115389;28;20268;-62
2022/08/06 03:10:01;;;;;;;3.03;1.50;;;17.60;64.30;;;20.39;48.66;102398.50;5117008;28;20192;-64
2022/08/06 03:12:30;;;;;;;1.77;1.30;;;17.70;64.10;;;20.41;48.68;102388.44;5116231;27;20245;-64
2022/08/06 03:15:02;;;;;;;3.97;1.90;;;17.70;64.10;;;20.42;48.58;102395.44;5116119;28;20210;-64
2022/08/06 03:17:41;;;;;;;2.40;1.50;;;17.70;64.10;;;20.41;48.91;102399.13;5116806;28;20211;-64
2022/08/06 03:20:19;;;;;;;3.33;1.60;;;17.70;64.30;;;20.41;48.50;102399.97;5116609;28;20200;-63
2022/08/06 03:22:58;;;;;;;3.33;1.43;;;17.70;63.90;;;20.40;49.01;102397.47;5116909;28;20257;-63
2022/08/06 03:25:30;;;;;;;2.57;1.70;;;17.70;64.10;;;20.40;48.42;102403.66;5116668;28;20175;-64
2022/08/06 03:27:59;;;;;;;2.10;1.80;;;17.70;63.90;;;20.41;48.68;102410.66;5116953;28;20644;-64
2022/08/06 03:30:30;;;;;;;2.37;1.57;;;17.70;63.90;;;20.37;48.98;102404.06;5115547;28;20188;-63
2022/08/06 03:33:04;;;;;;;2.47;1.50;;;17.70;63.90;;;20.33;48.52;102407.31;5095984;28;20573;-63
2022/08/06 03:35:56;;;;;;;3.43;2.03;;;17.70;64.10;;;20.28;48.95;102412.44;5096269;28;20216;-64
2022/08/06 03:38:31;;;;;;;2.00;1.67;;;17.60;64.20;;;20.27;49.32;102419.63;5103501;28;20221;-63
2022/08/06 03:41:00;;;;;;;2.13;1.33;;;17.60;64.20;;;20.26;48.90;102423.31;5116411;28;20196;-62
2022/08/06 03:43:29;;;;;;;3.63;1.50;;;17.50;64.50;;;20.28;49.53;102420.47;5116366;28;20190;-63
2022/08/06 03:46:24;;;;;;;1.60;1.50;;;17.60;64.80;;;20.31;49.37;102428.06;5115600;28;20187;-63
2022/08/06 03:48:58;;;;;;;2.90;1.57;;;17.60;64.70;;;20.36;49.03;102423.81;5118593;27;20191;-64
2022/08/06 03:51:30;;;;;;;3.00;1.73;;;17.70;64.50;;;20.40;48.73;102429.56;5136842;27;20301;-64
2022/08/06 03:54:25;;;;;;;1.93;1.77;;;17.70;64.80;;;20.35;48.90;102432.03;5120098;27;20195;-64
2022/08/06 03:57:05;;;;;;;3.93;2.67;;;17.70;64.00;;;20.35;49.05;102440.06;5117163;28;20180;-64
2022/08/06 03:59:39;;;;;;;3.73;2.07;;;17.70;64.20;;;20.33;48.91;102436.72;5116141;28;20195;-64
2022/08/06 04:02:32;;;;;;;2.40;1.73;;;17.70;64.10;;;20.31;48.95;102438.78;5114802;28;20680;-64
2022/08/06 04:05:16;;;;;;;1.77;1.47;;;17.70;63.90;;;20.25;48.43;102443.88;5115544;28;20614;-62
2022/08/06 04:07:54;;;;;;;2.10;1.57;;;17.60;63.60;;;20.19;48.42;102444.66;5116221;28;20194;-64
2022/08/06 04:10:30;;;;;;;3.53;1.80;;;17.60;63.60;;;20.13;48.54;102447.28;5115574;28;20187;-64
2022/08/06 04:13:05;;;;;;;2.73;1.83;;;17.50;63.90;;;20.06;48.95;102455.25;5115562;28;20218;-62
2022/08/06 04:15:55;;;;;;;2.30;1.67;;;17.40;63.80;;;19.98;49.04;102452.72;5117173;28;20235;-63
2022/08/06 04:18:28;;;;;;;2.23;2.03;;;17.40;64.10;;;19.94;48.97;102454.16;5113101;28;20196;-64
2022/08/06 04:21:00;;;;;;;1.83;1.70;;;17.30;64.50;;;19.92;48.92;102453.50;5094911;28;20596;-64
2022/08/06 04:23:50;;;;;;;3.20;1.90;;;17.20;64.50;;;19.89;49.45;102459.25;5095742;28;20201;-64
2022/08/06 04:26:24;;;;;;;3.13;1.70;;;17.20;64.70;;;19.85;49.40;102460.63;5095927;28;20244;-64
2022/08/06 04:28:55;;;;;;;3.17;1.60;;;17.10;64.60;;;19.78;49.00;102467.75;5095160;28;20559;-64
2022/08/06 04:31:29;;;;;;;4.37;1.90;;;17.10;64.40;;;19.71;49.28;102472.22;5094717;28;20621;-64
2022/08/06 04:34:22;;;;;;;3.30;2.30;;;17.10;64.80;;;19.65;49.74;102477.53;5097944;28;20199;-63
2022/08/06 04:36:58;;;;;;;2.77;2.07;;;17.00;65.00;;;19.62;50.06;102478.72;5114726;28;20268;-64
2022/08/06 04:39:32;;;;;;;2.40;1.90;;;16.90;65.40;;;19.59;50.00;102479.09;5114744;28;20208;-63
2022/08/06 04:42:16;;;;;;;1.93;1.80;;;16.90;65.60;;;19.57;50.01;102492.66;5114650;28;20211;-61
2022/08/06 04:44:44;;;;;;;2.17;1.77;;;16.90;65.70;;;19.55;49.88;102483.19;5114940;27;20184;-64
2022/08/06 04:47:24;;;;;;;3.90;2.20;;;16.80;65.70;;;19.51;50.09;102489.94;5115009;28;20195;-63
2022/08/06 04:50:09;;;;;;;2.03;1.77;;;16.80;66.00;;;19.50;50.55;102491.75;5124669;27;20283;-63
2022/08/06 04:52:38;;;;;;;2.53;2.33;;;16.80;66.80;;;19.55;50.78;102485.84;5115141;28;20660;-63
2022/08/06 04:55:20;;;;;;;2.93;2.10;;;16.80;66.80;;;19.57;50.17;102494.50;5115284;28;20223;-64
2022/08/06 04:57:53;;;;;;;2.30;2.10;;;16.80;66.50;;;19.57;50.41;102492.66;5114999;28;20219;-64
2022/08/06 05:00:30;;;;;;;2.27;1.83;;;16.80;66.50;;;19.59;50.69;102490.63;5112953;28;20240;-64
2022/08/06 05:03:17;;;;;;;3.87;2.00;;;16.80;66.70;;;19.62;50.26;102497.44;5113160;28;20215;-63
2022/08/06 05:06:15;;;;;;;5.87;1.80;;;16.80;66.40;;;19.62;50.47;102502.78;5114410;28;20180;-64
2022/08/06 05:08:48;;;;;;;3.50;2.90;;;16.90;67.40;;;19.68;50.67;102504.69;5105881;28;20617;-64
2022/08/06 05:11:25;;;;;;;4.27;2.10;;;16.90;66.70;;;19.74;50.29;102514.59;5114027;28;20222;-63
2022/08/06 05:13:58;;;;;;;6.43;1.80;;;17.00;66.90;;;19.84;50.43;102515.13;5115135;28;20202;-63
2022/08/06 05:16:32;;;;;;;1.63;1.40;;;17.10;67.00;;;19.95;50.34;102511.09;5114594;28;20294;-63
2022/08/06 05:19:04;;;;;;;2.10;1.53;;;17.20;66.70;;;20.05;49.78;102517.78;5113856;28;20201;-64
2022/08/06 05:21:52;;;;;;;2.13;1.93;;;17.30;66.20;;;20.14;49.42;102516.59;5113972;28;20212;-64
2022/08/06 05:24:40;;;;;;;3.50;1.63;;;17.40;65.90;;;20.20;49.66;102515.03;5095261;28;20203;-64
2022/08/06 05:27:30;;;;;;;1.97;1.50;;;17.40;65.40;;;20.23;49.11;102520.00;5093757;28;20264;-64
2022/08/06 05:30:17;;;;;;;1.93;1.57;;;17.50;65.20;;;20.23;49.36;102520.81;5095300;28;20645;-63
2022/08/06 05:32:49;;;;;;;2.00;1.83;;;17.50;64.60;;;20.20;49.13;102523.88;5113735;28;20214;-63
2022/08/06 05:35:23;;;;;;;3.43;1.70;;;17.50;64.30;;;20.19;48.85;102527.56;5113884;28;20675;-63
2022/08/06 05:38:08;;;;;;;1.73;1.63;;;17.50;64.40;;;20.19;48.66;102540.94;5113667;28;20184;-64
2022/08/06 05:40:38;;;;;;;4.70;1.70;;;17.40;64.40;;;20.19;48.83;102540.09;5112902;28;20241;-63
2022/08/06 05:43:25;;;;;;;1.97;1.70;;;17.40;64.60;;;20.20;49.15;102547.94;5114086;28;20220;-62
2022/08/06 05:46:16;;;;;;;2.10;2.00;;;17.50;64.80;;;20.23;48.77;102547.56;5114423;28;20187;-62
2022/08/06 05:48:55;;;;;;;2.30;1.80;;;17.50;64.70;;;20.26;48.81;102551.69;5115616;28;20195;-64
2022/08/06 05:51:33;;;;;;;2.57;1.97;;;17.50;64.80;;;20.30;49.12;102546.81;5134051;27;20206;-64
2022/08/06 05:54:20;;;;;;;4.33;1.67;;;17.50;64.60;;;20.31;48.53;102549.28;5118199;27;20695;-64
2022/08/06 05:56:55;;;;;;;2.93;2.00;;;17.50;65.30;;;20.37;48.98;102550.38;5112961;28;20229;-64
2022/08/06 05:59:39;;;;;;;2.07;1.87;;;17.50;64.60;;;20.39;48.77;102551.00;5113793;28;20583;-64
2022/08/06 06:02:29;;;;;;;3.30;2.10;;;17.60;64.60;;;20.45;48.40;102556.38;5113235;28;20227;-64
2022/08/06 06:04:59;;;;;;;1.83;1.70;;;17.60;64.40;;;20.50;48.70;102553.13;5114198;28;20191;-64
2022/08/06 06:07:48;;;;;;;3.67;2.00;;;17.60;64.30;;;20.55;48.78;102550.69;5113771;28;20241;-63
2022/08/06 06:10:38;;;;;;;3.63;1.80;;;17.70;64.40;;;20.64;48.24;102560.22;5113368;28;20199;-62
2022/08/06 06:13:10;;;;;;;4.07;1.70;;;17.80;64.40;;;20.72;47.97;102554.72;5095482;28;20215;-64
2022/08/06 06:16:22;;;;;;;2.07;1.70;;;17.80;64.00;;;20.78;47.97;102559.28;5097509;28;20215;-64
2022/08/06 06:19:14;;;;;;;2.20;1.97;;;17.90;64.00;;;20.88;47.69;102562.44;5096757;28;20189;-64
2022/08/06 06:22:03;;;;;;;1.77;1.50;;;18.00;63.70;;;21.00;47.34;102560.84;5097194;28;20212;-64
2022/08/06 06:24:40;;;;;;;2.60;1.60;;;18.10;63.90;;;21.08;47.04;102560.72;5115918;28;20192;-64
2022/08/06 06:27:18;;;;;;;3.43;1.70;;;18.20;63.00;;;21.18;46.97;102563.84;5116735;28;20271;-64
2022/08/06 06:30:07;;;;;;;2.27;1.93;;;18.30;62.70;;;21.26;46.84;102571.72;5117204;27;20278;-64
2022/08/06 06:32:49;;;;;;;1.93;1.60;;;18.40;62.30;;;21.29;46.63;102565.13;5117078;28;20290;-65
2022/08/06 06:35:27;;;;;;;2.23;1.40;;;18.50;62.20;;;21.37;46.61;102573.00;5117532;28;20195;-64
2022/08/06 06:38:25;;;;;;;1.53;1.37;;;18.50;62.20;;;21.44;46.28;102573.88;5116381;28;20264;-64
2022/08/06 06:41:01;;;;;;;3.67;1.20;;;18.60;62.00;;;21.56;46.65;102581.09;5116604;28;20192;-63
2022/08/06 06:43:56;;;;;;;4.57;1.60;;;18.70;61.90;;;21.66;46.53;102577.19;5117191;28;20180;-64
2022/08/06 06:46:31;;;;;;;3.07;1.23;;;18.80;61.40;;;21.74;45.71;102577.03;5117178;28;20188;-64
2022/08/06 06:49:22;;;;;;;2.27;1.40;;;18.80;61.10;;;21.82;45.57;102582.22;5120335;27;20250;-65
2022/08/06 06:52:20;;;;;;;3.33;1.60;;;18.90;60.90;;;21.93;45.21;102585.16;5136624;27;20210;-64
2022/08/06 06:55:13;;;;;;;2.97;1.30;;;19.00;60.60;;;22.05;45.37;102574.63;5096449;28;20192;-64
2022/08/06 06:57:51;;;;;;;1.30;1.10;;;19.10;60.50;;;22.15;44.74;102589.31;5096081;28;20216;-65
2022/08/06 07:00:19;;;;;;;2.70;1.57;;;19.20;60.00;;;22.24;44.71;102587.25;5095770;28;20188;-63
2022/08/06 07:03:08;;;;;;;1.83;0.90;;;19.30;59.80;;;22.29;44.60;102590.13;5095667;28;20215;-65
2022/08/06 07:05:44;;;;;;;1.43;0.90;;;19.30;59.30;;;22.31;44.68;102595.28;5095639;28;20191;-64
2022/08/06 07:08:35;;;;;;;1.83;1.10;;;19.40;59.50;;;22.37;44.23;102600.66;5106043;28;20593;-64
2022/08/06 07:11:10;;;;;;;1.80;1.13;;;19.40;59.30;;;22.45;44.45;102595.06;5115328;28;20195;-64
2022/08/06 07:13:50;;;;;;;1.63;1.07;;;19.50;59.20;;;22.52;44.37;102601.28;5115900;28;20192;-64
2022/08/06 07:16:22;;;;;;;1.67;1.10;;;19.60;59.00;;;22.58;44.05;102600.44;5115722;28;20208;-62
2022/08/06 07:19:05;;;;;;;1.80;0.93;;;19.60;58.70;;;22.63;43.80;102597.97;5115763;28;20184;-64
2022/08/06 07:21:41;;;;;;;3.33;1.40;;;19.70;58.60;;;22.71;43.66;102603.13;5114914;28;20207;-64
2022/08/06 07:24:21;;;;;;;3.00;1.43;;;19.70;58.30;;;22.80;43.47;102609.09;5115468;28;20207;-64
2022/08/06 07:27:09;;;;;;;2.07;1.00;;;19.80;58.30;;;22.87;43.19;102609.91;5098241;28;20191;-64
2022/08/06 07:29:44;;;;;;;1.67;1.23;;;19.90;57.80;;;22.95;42.64;102615.09;5095511;28;20196;-63
2022/08/06 07:32:27;;;;;;;2.97;1.50;;;19.90;57.30;;;23.01;42.78;102610.75;5094847;28;20239;-64
2022/08/06 07:35:01;;;;;;;2.50;1.03;;;20.00;57.40;;;23.08;42.55;102612.38;5095480;28;20189;-63
2022/08/06 07:37:49;;;;;;;3.23;1.10;;;20.10;57.20;;;23.14;42.24;102616.06;5095115;28;20226;-63
2022/08/06 07:40:24;;;;;;;1.57;1.13;;;20.20;56.90;;;23.20;42.22;102617.91;5095114;28;20223;-63
2022/08/06 07:43:04;;;;;;;1.03;1.00;;;20.30;56.60;;;23.29;41.92;102616.66;5094978;28;20223;-63
2022/08/06 07:45:54;;;;;;;2.23;0.97;;;20.30;56.30;;;23.40;41.52;102618.69;5094939;28;20196;-65
2022/08/06 07:48:28;;;;;;;0.77;0.77;;;20.40;55.80;;;23.46;41.58;102615.16;5094879;28;20253;-64
2022/08/06 07:51:02;;;;;;;1.10;1.00;;;20.50;55.80;;;23.52;41.24;102608.91;5109768;27;20283;-64
2022/08/06 07:53:37;;;;;;;1.77;1.10;;;20.60;55.80;;;23.71;40.84;102610.69;5104639;28;20196;-63
2022/08/06 07:56:25;;;;;;;1.07;1.03;;;20.70;55.40;;;24.46;40.39;102619.72;5114993;28;20272;-63
2022/08/06 07:58:55;;;;;;;1.87;0.90;;;20.90;55.70;;;25.41;39.30;102617.28;5114611;28;20735;-64
2022/08/06 08:01:26;;;;;;;2.17;1.10;;;21.30;55.60;;;26.54;37.89;102623.53;5114519;28;20272;-64
2022/08/06 08:07:05;;;;;;;4.50;1.40;;;22.50;53.40;;;29.31;33.61;102619.72;5115505;28;20709;-64
2022/08/06 08:09:43;;;;;;;2.77;1.10;;;23.50;52.90;;;30.65;31.09;102625.91;5114437;28;20228;-65
2022/08/06 08:12:33;;;;;;;2.27;1.00;;;24.30;50.40;;;31.75;29.20;102620.16;5114947;28;20230;-63
2022/08/06 08:15:06;;;;;;;2.53;1.10;;;25.20;47.40;;;32.17;27.63;102632.75;5099456;28;20275;-65
2022/08/06 08:17:45;;;;;;;1.77;1.20;;;25.90;44.20;;;32.56;27.60;102628.38;5094474;28;20208;-65
2022/08/06 08:20:26;;;;;;;1.77;1.20;;;26.50;43.40;;;33.28;26.14;102628.72;5107355;28;20200;-65
2022/08/06 08:23:00;;;;;;;1.17;0.93;;;27.10;41.10;;;33.84;25.57;102631.13;5114963;28;20679;-65
2022/08/06 08:25:30;;;;;;;5.47;1.40;;;27.60;40.20;;;33.62;25.56;102639.75;5114300;28;20194;-65
2022/08/06 08:28:12;;;;;;;3.57;1.27;;;28.10;38.70;;;33.10;25.69;102642.16;5114146;28;20701;-64
2022/08/06 08:30:45;;;;;;;2.27;1.03;;;28.20;37.90;;;33.39;25.40;102645.88;5101673;28;20200;-65
2022/08/06 08:33:17;;;;;;;1.90;1.00;;;28.20;37.40;;;34.05;24.54;102635.38;5094036;28;20224;-65
2022/08/06 08:35:46;;;;;;;1.63;0.90;;;28.30;36.70;;;34.62;23.86;102631.88;5093429;28;20242;-63
2022/08/06 08:38:28;;;;;;;2.60;0.90;;;28.60;36.50;;;35.58;23.23;102633.47;5093733;28;20188;-64
2022/08/06 08:41:03;;;;;;;1.30;1.20;;;29.00;36.70;;;36.62;22.00;102634.75;5093507;28;20661;-64
2022/08/06 08:43:39;;;;;;;1.63;0.90;;;29.60;35.30;;;37.46;20.79;102641.56;5093661;28;20237;-64
2022/08/06 08:46:29;;;;;;;1.20;1.10;;;30.10;32.50;;;38.26;20.09;102638.78;5097297;28;20223;-64
2022/08/06 08:49:02;;;;;;;1.80;1.30;;;30.70;32.50;;;38.81;19.39;102641.22;5099159;27;20307;-65
2022/08/06 08:51:34;;;;;;;1.35;1.10;;;31.30;31.00;;;39.07;19.40;102650.38;5134504;27;20280;-65
2022/08/06 08:54:16;;;;;;;1.38;0.80;;;31.60;30.40;;;38.41;19.62;102641.19;5119364;27;20192;-65
2022/08/06 08:56:48;;;;;;;1.42;1.30;;;31.90;29.80;;;38.37;19.46;102639.38;5113540;28;20234;-64
2022/08/06 08:59:37;;;;;;;1.05;0.95;;;31.90;29.60;;;37.88;20.11;102646.66;5113284;28;20192;-64
2022/08/06 09:02:26;;;;;;;2.67;1.20;;;32.00;29.40;;;37.57;19.56;102642.97;5112962;28;20212;-64
2022/08/06 09:04:54;;;;;;;2.47;1.23;;;31.80;29.10;;;37.86;19.19;102645.34;5114147;28;20196;-64
2022/08/06 09:07:27;;;;;;;1.25;1.00;;;31.70;28.80;;;38.46;18.93;102638.31;5113868;28;20196;-65
2022/08/06 09:10:06;;;;;;;1.30;0.90;;;31.90;29.10;;;38.77;18.95;102640.22;5113445;27;20257;-64
2022/08/06 09:12:37;;;;;;;1.17;1.08;;;32.00;28.90;;;38.53;18.64;102640.59;5113578;28;20290;-64
2022/08/06 09:15:17;;;;;;;0.98;0.98;;;32.20;28.60;;;38.82;18.70;102640.09;5113365;28;20191;-64
2022/08/06 09:17:47;;;;;;;2.05;1.35;;;32.30;28.50;;;39.27;18.42;102638.78;5113667;28;20214;-65
2022/08/06 09:20:36;;;;;;;1.98;1.13;;;32.40;28.40;;;39.92;17.33;102642.19;5093349;28;20196;-65
2022/08/06 09:23:08;;;;;;;2.80;1.33;;;32.70;27.50;;;40.11;16.58;102641.03;5092984;28;20566;-64
2022/08/06 09:25:43;;;;;;;1.65;1.20;;;32.80;26.90;;;40.59;16.79;102644.34;5093638;28;20284;-64
2022/08/06 09:28:35;;;;;;;0.88;0.70;;;33.20;27.00;;;41.35;16.51;102649.78;5093658;28;20189;-64
2022/08/06 09:31:06;;;;;;;3.17;1.35;;;33.50;26.60;;;41.68;15.86;102647.88;5092592;28;20200;-63
2022/08/06 09:33:58;;;;;;;2.03;1.25;;;33.80;26.20;;;41.10;15.77;102657.13;5092186;28;20192;-64
2022/08/06 09:36:48;;;;;;;1.67;1.10;;;33.90;24.70;;;41.29;15.90;102662.22;5093031;28;20208;-64
2022/08/06 09:39:33;;;;;;;1.00;1.00;;;34.00;25.50;;;41.55;15.96;102649.00;5092682;28;20218;-64
2022/08/06 09:42:36;;;;;;;1.25;1.15;;;34.10;25.50;;;40.75;16.10;102648.16;5101964;28;20214;-63
2022/08/06 09:45:09;;;;;;;0.90;0.90;;;34.20;25.10;;;40.32;16.88;102661.31;5113745;28;20195;-63
2022/08/06 09:47:44;;;;;;;1.30;1.20;;;34.00;25.10;;;39.92;16.26;102662.66;5114713;28;20207;-64
2022/08/06 09:50:41;;;;;;;0.95;0.80;;;33.60;24.90;;;39.38;17.07;102659.38;5125326;27;20191;-64
2022/08/06 09:53:11;;;;;;;2.17;1.00;;;33.40;25.60;;;39.54;16.98;102657.75;5117881;28;20219;-65
2022/08/06 09:55:42;;;;;;;2.65;1.30;;;33.20;25.60;;;38.61;16.84;102659.91;5117774;28;20267;-64
2022/08/06 09:58:11;;;;;;;0.82;0.82;;;33.00;24.90;;;37.38;17.11;102667.03;5117329;28;20231;-62
2022/08/06 10:00:40;;;;;;;1.83;1.00;;;32.50;24.20;;;37.28;16.53;102669.97;5117050;27;20260;-64
2022/08/06 10:03:09;;;;;;;2.38;1.00;;;32.10;23.90;;;37.97;16.04;102673.44;5117067;28;20346;-64
2022/08/06 10:06:05;;;;;;;2.33;2.13;;;32.00;24.10;;;39.07;15.40;102666.91;5116796;28;20188;-64
2022/08/06 10:08:38;;;;;;;1.52;1.25;;;32.10;24.40;;;39.62;15.38;102669.97;5116858;27;20195;-64
2022/08/06 10:11:07;;;;;;;1.25;1.15;;;32.20;24.40;;;40.34;15.82;102664.56;5116559;27;20188;-64
2022/08/06 10:13:37;;;;;;;1.02;0.85;;;32.70;24.80;;;41.24;14.48;102673.44;5116798;28;20192;-64
2022/08/06 10:16:26;;;;;;;3.33;3.03;;;33.10;24.50;;;42.02;13.95;102677.25;5117413;28;20260;-64
2022/08/06 10:18:57;;;;;;;1.33;0.95;;;33.60;24.10;;;41.67;14.14;102668.44;5117561;28;20215;-64
2022/08/06 10:21:44;;;;;;;1.73;1.30;;;33.80;23.40;;;41.08;15.06;102667.69;5116051;28;20204;-65
2022/08/06 10:24:17;;;;;;;1.45;1.10;;;33.90;23.50;;;40.46;15.38;102657.22;5117004;28;20671;-65
2022/08/06 10:27:05;;;;;;;1.52;1.15;;;33.90;23.70;;;39.32;15.78;102673.66;5117007;28;20182;-65
2022/08/06 10:29:39;;;;;;;1.75;0.95;;;33.60;23.10;;;38.03;16.87;102672.16;5117055;28;20192;-64
2022/08/06 10:32:25;;;;;;;1.00;0.90;;;33.20;23.80;;;36.80;17.51;102666.81;5116438;28;20216;-64
2022/08/06 10:35:04;;;;;;;1.10;1.00;;;32.60;24.50;;;35.76;18.68;102658.13;5116862;28;20667;-62
2022/08/06 10:37:45;;;;;;;0.90;0.73;;;32.00;25.40;;;35.08;19.79;102652.19;5114297;28;20257;-65
2022/08/06 10:40:26;;;;;;;2.23;1.20;;;31.40;26.20;;;35.41;20.09;102647.66;5095634;28;20197;-63
2022/08/06 10:43:06;;;;;;;1.00;0.77;;;31.00;27.00;;;35.82;18.83;102645.97;5096262;28;20337;-62
2022/08/06 10:45:35;;;;;;;0.50;0.50;;;30.90;26.70;;;35.71;19.49;102649.97;5096505;28;20544;-62
2022/08/06 10:48:18;;;;;;;0.90;0.73;;;30.80;26.50;;;35.26;19.34;102647.84;5096321;28;20547;-63
2022/08/06 10:51:08;;;;;;;0.60;0.60;;;30.70;26.80;;;34.43;20.41;102650.09;5096394;28;20219;-65
2022/08/06 10:53:38;;;;;;;2.30;0.70;;;30.40;27.10;;;33.71;20.94;102637.25;5106826;28;20190;-65
2022/08/06 10:56:28;;;;;;;1.30;0.70;;;30.10;27.50;;;33.01;21.88;102644.63;5117024;28;20574;-64
2022/08/06 10:59:06;;;;;;;0.60;0.60;;;29.70;28.60;;;32.34;22.53;102645.00;5116111;28;20362;-64
2022/08/06 11:01:46;;;;;;;1.93;1.60;;;29.30;28.20;;;31.75;22.89;102636.50;5116539;28;20214;-63
2022/08/06 11:04:47;;;;;;;2.57;1.73;;;29.00;28.90;;;31.33;23.45;102633.88;5116598;28;20188;-65